sensor_id;sensor_type;location;lat;lon;timestamp;P1;durP1;ratioP1;P2;durP2;ratioP2
44508;SDS011;30214;52.246;14.408;2022-12-07T00:02:16;13.90;;;9.02;;
44508;SDS011;30214;52.246;14.408;2022-12-07T00:04:46;13.70;;;8.25;;
44508;SDS011;30214;52.246;14.408;2022-12-07T00:07:16;12.77;;;7.43;;
44508;SDS011;30214;52.246;14.408;2022-12-07T00:09:45;10.65;;;6.50;;
44508;SDS011;30214;52.246;14.408;2022-12-07T00:12:15;8.20;;;5.88;;
44508;SDS011;30214;52.246;14.408;2022-12-07T00:14:43;8.52;;;5.70;;
44508;SDS011;30214;52.246;14.408;2022-12-07T00:17:11;6.80;;;5.00;;
44508;SDS011;30214;52.246;14.408;2022-12-07T00:19:40;7.25;;;5.00;;
44508;SDS011;30214;52.246;14.408;2022-12-07T00:22:09;8.02;;;5.22;;
44508;SDS011;30214;52.246;14.408;2022-12-07T00:24:37;5.85;;;4.20;;
44508;SDS011;30214;52.246;14.408;2022-12-07T00:27:05;6.10;;;4.03;;
44508;SDS011;30214;52.246;14.408;2022-12-07T00:29:33;6.82;;;4.57;;
44508;SDS011;30214;52.246;14.408;2022-12-07T00:32:02;5.35;;;3.95;;
44508;SDS011;30214;52.246;14.408;2022-12-07T00:34:31;5.63;;;3.85;;
44508;SDS011;30214;52.246;14.408;2022-12-07T00:37:00;4.88;;;3.72;;
44508;SDS011;30214;52.246;14.408;2022-12-07T00:39:31;5.32;;;3.92;;
44508;SDS011;30214;52.246;14.408;2022-12-07T00:41:59;5.20;;;3.95;;
44508;SDS011;30214;52.246;14.408;2022-12-07T00:44:27;5.68;;;3.67;;
44508;SDS011;30214;52.246;14.408;2022-12-07T00:46:55;5.53;;;3.60;;
44508;SDS011;30214;52.246;14.408;2022-12-07T00:49:23;4.47;;;3.10;;
44508;SDS011;30214;52.246;14.408;2022-12-07T00:51:51;4.30;;;3.42;;
44508;SDS011;30214;52.246;14.408;2022-12-07T00:54:21;5.35;;;3.28;;
44508;SDS011;30214;52.246;14.408;2022-12-07T00:56:49;4.70;;;3.15;;
44508;SDS011;30214;52.246;14.408;2022-12-07T00:59:17;5.70;;;3.60;;
44508;SDS011;30214;52.246;14.408;2022-12-07T01:01:46;5.93;;;3.53;;
44508;SDS011;30214;52.246;14.408;2022-12-07T01:04:14;4.70;;;3.40;;
44508;SDS011;30214;52.246;14.408;2022-12-07T01:06:42;5.65;;;3.83;;
44508;SDS011;30214;52.246;14.408;2022-12-07T01:09:11;4.28;;;3.08;;
44508;SDS011;30214;52.246;14.408;2022-12-07T01:11:42;7.03;;;3.85;;
44508;SDS011;30214;52.246;14.408;2022-12-07T01:14:10;4.47;;;3.20;;
44508;SDS011;30214;52.246;14.408;2022-12-07T01:16:39;5.40;;;3.67;;
44508;SDS011;30214;52.246;14.408;2022-12-07T01:19:07;6.70;;;4.00;;
44508;SDS011;30214;52.246;14.408;2022-12-07T01:21:35;5.53;;;3.88;;
44508;SDS011;30214;52.246;14.408;2022-12-07T01:24:06;5.75;;;4.00;;
44508;SDS011;30214;52.246;14.408;2022-12-07T01:26:38;7.80;;;4.82;;
44508;SDS011;30214;52.246;14.408;2022-12-07T01:29:08;11.88;;;6.68;;
44508;SDS011;30214;52.246;14.408;2022-12-07T01:31:36;12.60;;;7.25;;
44508;SDS011;30214;52.246;14.408;2022-12-07T01:34:10;16.83;;;9.15;;
44508;SDS011;30214;52.246;14.408;2022-12-07T01:36:40;16.48;;;9.57;;
44508;SDS011;30214;52.246;14.408;2022-12-07T01:39:08;20.40;;;12.30;;
44508;SDS011;30214;52.246;14.408;2022-12-07T01:41:39;18.05;;;10.45;;
44508;SDS011;30214;52.246;14.408;2022-12-07T01:44:21;19.92;;;11.05;;
44508;SDS011;30214;52.246;14.408;2022-12-07T01:46:52;17.27;;;10.35;;
44508;SDS011;30214;52.246;14.408;2022-12-07T01:49:23;15.77;;;9.15;;
44508;SDS011;30214;52.246;14.408;2022-12-07T01:52:01;16.48;;;10.05;;
44508;SDS011;30214;52.246;14.408;2022-12-07T01:54:40;17.57;;;10.23;;
44508;SDS011;30214;52.246;14.408;2022-12-07T01:57:09;19.58;;;10.07;;
44508;SDS011;30214;52.246;14.408;2022-12-07T01:59:42;16.52;;;10.43;;
44508;SDS011;30214;52.246;14.408;2022-12-07T02:02:14;19.15;;;10.90;;
44508;SDS011;30214;52.246;14.408;2022-12-07T02:04:47;14.85;;;9.45;;
44508;SDS011;30214;52.246;14.408;2022-12-07T02:07:15;17.80;;;10.15;;
44508;SDS011;30214;52.246;14.408;2022-12-07T02:09:44;16.88;;;10.35;;
44508;SDS011;30214;52.246;14.408;2022-12-07T02:12:12;16.08;;;10.30;;
44508;SDS011;30214;52.246;14.408;2022-12-07T02:14:42;16.98;;;10.07;;
44508;SDS011;30214;52.246;14.408;2022-12-07T02:17:14;16.88;;;10.18;;
44508;SDS011;30214;52.246;14.408;2022-12-07T02:26:38;13.98;;;9.30;;
44508;SDS011;30214;52.246;14.408;2022-12-07T02:29:25;15.65;;;8.50;;
44508;SDS011;30214;52.246;14.408;2022-12-07T02:32:01;13.43;;;8.55;;
44508;SDS011;30214;52.246;14.408;2022-12-07T02:37:13;12.15;;;8.13;;
44508;SDS011;30214;52.246;14.408;2022-12-07T02:39:53;11.32;;;7.97;;
44508;SDS011;30214;52.246;14.408;2022-12-07T02:42:27;10.95;;;7.57;;
44508;SDS011;30214;52.246;14.408;2022-12-07T02:45:04;13.02;;;8.05;;
44508;SDS011;30214;52.246;14.408;2022-12-07T02:47:35;11.43;;;7.30;;
44508;SDS011;30214;52.246;14.408;2022-12-07T02:50:04;10.23;;;7.00;;
44508;SDS011;30214;52.246;14.408;2022-12-07T02:52:35;10.52;;;6.68;;
44508;SDS011;30214;52.246;14.408;2022-12-07T02:55:03;10.15;;;6.75;;
44508;SDS011;30214;52.246;14.408;2022-12-07T02:57:42;8.85;;;7.00;;
44508;SDS011;30214;52.246;14.408;2022-12-07T03:00:25;8.60;;;6.60;;
44508;SDS011;30214;52.246;14.408;2022-12-07T03:02:53;10.02;;;6.85;;
44508;SDS011;30214;52.246;14.408;2022-12-07T03:05:31;11.45;;;7.22;;
44508;SDS011;30214;52.246;14.408;2022-12-07T03:08:19;10.60;;;7.20;;
44508;SDS011;30214;52.246;14.408;2022-12-07T03:10:56;10.95;;;7.13;;
44508;SDS011;30214;52.246;14.408;2022-12-07T03:13:28;11.00;;;7.78;;
44508;SDS011;30214;52.246;14.408;2022-12-07T03:16:05;11.55;;;7.72;;
44508;SDS011;30214;52.246;14.408;2022-12-07T03:18:43;9.57;;;6.80;;
44508;SDS011;30214;52.246;14.408;2022-12-07T03:21:17;11.23;;;6.68;;
44508;SDS011;30214;52.246;14.408;2022-12-07T03:23:48;9.80;;;7.05;;
44508;SDS011;30214;52.246;14.408;2022-12-07T03:26:21;10.18;;;6.05;;
44508;SDS011;30214;52.246;14.408;2022-12-07T03:28:59;9.15;;;6.35;;
44508;SDS011;30214;52.246;14.408;2022-12-07T03:34:06;9.05;;;5.63;;
44508;SDS011;30214;52.246;14.408;2022-12-07T03:36:39;8.82;;;5.95;;
44508;SDS011;30214;52.246;14.408;2022-12-07T03:39:17;9.90;;;5.80;;
44508;SDS011;30214;52.246;14.408;2022-12-07T03:41:52;8.15;;;5.55;;
44508;SDS011;30214;52.246;14.408;2022-12-07T03:44:22;7.32;;;5.50;;
44508;SDS011;30214;52.246;14.408;2022-12-07T03:46:57;7.53;;;5.45;;
44508;SDS011;30214;52.246;14.408;2022-12-07T03:49:32;7.80;;;5.78;;
44508;SDS011;30214;52.246;14.408;2022-12-07T03:52:09;8.30;;;5.80;;
44508;SDS011;30214;52.246;14.408;2022-12-07T03:54:47;8.98;;;5.97;;
44508;SDS011;30214;52.246;14.408;2022-12-07T03:57:21;6.97;;;5.32;;
44508;SDS011;30214;52.246;14.408;2022-12-07T03:59:51;8.02;;;5.25;;
44508;SDS011;30214;52.246;14.408;2022-12-07T04:02:23;8.60;;;5.80;;
44508;SDS011;30214;52.246;14.408;2022-12-07T04:04:53;7.95;;;5.28;;
44508;SDS011;30214;52.246;14.408;2022-12-07T04:07:22;6.60;;;4.78;;
44508;SDS011;30214;52.246;14.408;2022-12-07T04:09:49;8.75;;;4.90;;
44508;SDS011;30214;52.246;14.408;2022-12-07T04:12:20;7.25;;;4.88;;
44508;SDS011;30214;52.246;14.408;2022-12-07T04:14:49;6.75;;;4.97;;
44508;SDS011;30214;52.246;14.408;2022-12-07T04:17:27;7.13;;;4.82;;
44508;SDS011;30214;52.246;14.408;2022-12-07T04:19:55;7.72;;;4.93;;
44508;SDS011;30214;52.246;14.408;2022-12-07T04:22:23;6.88;;;5.03;;
44508;SDS011;30214;52.246;14.408;2022-12-07T04:24:51;9.98;;;5.30;;
44508;SDS011;30214;52.246;14.408;2022-12-07T04:27:19;8.15;;;5.43;;
44508;SDS011;30214;52.246;14.408;2022-12-07T04:29:47;8.93;;;5.60;;
44508;SDS011;30214;52.246;14.408;2022-12-07T04:32:15;11.45;;;6.75;;
44508;SDS011;30214;52.246;14.408;2022-12-07T04:34:45;11.45;;;6.78;;
44508;SDS011;30214;52.246;14.408;2022-12-07T04:37:13;12.43;;;7.30;;
44508;SDS011;30214;52.246;14.408;2022-12-07T04:39:42;13.10;;;7.47;;
44508;SDS011;30214;52.246;14.408;2022-12-07T04:42:11;12.93;;;7.15;;
44508;SDS011;30214;52.246;14.408;2022-12-07T04:44:39;10.60;;;6.50;;
44508;SDS011;30214;52.246;14.408;2022-12-07T04:47:07;9.57;;;5.68;;
44508;SDS011;30214;52.246;14.408;2022-12-07T04:49:34;8.88;;;5.63;;
44508;SDS011;30214;52.246;14.408;2022-12-07T04:52:04;9.15;;;5.70;;
44508;SDS011;30214;52.246;14.408;2022-12-07T04:54:32;9.27;;;5.88;;
44508;SDS011;30214;52.246;14.408;2022-12-07T04:57:00;8.07;;;5.50;;
44508;SDS011;30214;52.246;14.408;2022-12-07T04:59:28;8.35;;;5.57;;
44508;SDS011;30214;52.246;14.408;2022-12-07T05:01:56;7.75;;;5.78;;
44508;SDS011;30214;52.246;14.408;2022-12-07T05:04:24;8.05;;;5.28;;
44508;SDS011;30214;52.246;14.408;2022-12-07T05:06:52;7.82;;;5.72;;
44508;SDS011;30214;52.246;14.408;2022-12-07T05:09:21;8.15;;;6.03;;
44508;SDS011;30214;52.246;14.408;2022-12-07T05:11:49;12.43;;;7.15;;
44508;SDS011;30214;52.246;14.408;2022-12-07T05:14:18;8.93;;;5.85;;
44508;SDS011;30214;52.246;14.408;2022-12-07T05:16:48;9.50;;;6.13;;
44508;SDS011;30214;52.246;14.408;2022-12-07T05:19:19;9.82;;;6.53;;
44508;SDS011;30214;52.246;14.408;2022-12-07T05:21:47;9.20;;;6.35;;
44508;SDS011;30214;52.246;14.408;2022-12-07T05:24:15;11.30;;;6.55;;
44508;SDS011;30214;52.246;14.408;2022-12-07T05:26:45;11.18;;;6.65;;
44508;SDS011;30214;52.246;14.408;2022-12-07T05:29:13;11.88;;;7.22;;
44508;SDS011;30214;52.246;14.408;2022-12-07T05:31:43;12.50;;;6.57;;
44508;SDS011;30214;52.246;14.408;2022-12-07T05:34:13;10.68;;;6.88;;
44508;SDS011;30214;52.246;14.408;2022-12-07T05:36:40;12.60;;;7.85;;
44508;SDS011;30214;52.246;14.408;2022-12-07T05:39:09;13.27;;;8.23;;
44508;SDS011;30214;52.246;14.408;2022-12-07T05:41:38;11.40;;;7.60;;
44508;SDS011;30214;52.246;14.408;2022-12-07T05:44:24;12.75;;;7.90;;
44508;SDS011;30214;52.246;14.408;2022-12-07T05:46:53;13.65;;;9.70;;
44508;SDS011;30214;52.246;14.408;2022-12-07T05:49:21;15.25;;;9.38;;
44508;SDS011;30214;52.246;14.408;2022-12-07T05:51:52;15.85;;;10.00;;
44508;SDS011;30214;52.246;14.408;2022-12-07T05:54:21;15.00;;;9.52;;
44508;SDS011;30214;52.246;14.408;2022-12-07T05:56:49;16.25;;;9.85;;
44508;SDS011;30214;52.246;14.408;2022-12-07T05:59:17;18.90;;;10.80;;
44508;SDS011;30214;52.246;14.408;2022-12-07T06:01:53;18.33;;;10.10;;
44508;SDS011;30214;52.246;14.408;2022-12-07T06:04:24;14.68;;;9.73;;
44508;SDS011;30214;52.246;14.408;2022-12-07T06:06:53;15.00;;;9.73;;
44508;SDS011;30214;52.246;14.408;2022-12-07T06:09:21;17.50;;;10.05;;
44508;SDS011;30214;52.246;14.408;2022-12-07T06:11:51;16.30;;;10.90;;
44508;SDS011;30214;52.246;14.408;2022-12-07T06:14:36;18.63;;;11.60;;
44508;SDS011;30214;52.246;14.408;2022-12-07T06:17:05;19.33;;;11.50;;
44508;SDS011;30214;52.246;14.408;2022-12-07T06:19:32;19.77;;;12.57;;
44508;SDS011;30214;52.246;14.408;2022-12-07T06:22:00;22.05;;;11.50;;
44508;SDS011;30214;52.246;14.408;2022-12-07T06:24:29;18.25;;;10.88;;
44508;SDS011;30214;52.246;14.408;2022-12-07T06:26:57;19.10;;;10.50;;
44508;SDS011;30214;52.246;14.408;2022-12-07T06:29:25;20.52;;;11.73;;
44508;SDS011;30214;52.246;14.408;2022-12-07T06:31:52;19.02;;;12.02;;
44508;SDS011;30214;52.246;14.408;2022-12-07T06:34:21;17.88;;;11.38;;
44508;SDS011;30214;52.246;14.408;2022-12-07T06:36:49;16.95;;;10.77;;
44508;SDS011;30214;52.246;14.408;2022-12-07T06:39:18;18.40;;;10.93;;
44508;SDS011;30214;52.246;14.408;2022-12-07T06:41:46;19.00;;;10.98;;
44508;SDS011;30214;52.246;14.408;2022-12-07T06:44:13;20.10;;;12.05;;
44508;SDS011;30214;52.246;14.408;2022-12-07T06:46:40;23.13;;;13.32;;
44508;SDS011;30214;52.246;14.408;2022-12-07T06:49:07;20.38;;;12.65;;
44508;SDS011;30214;52.246;14.408;2022-12-07T06:51:36;18.83;;;12.35;;
44508;SDS011;30214;52.246;14.408;2022-12-07T06:54:06;23.92;;;13.77;;
44508;SDS011;30214;52.246;14.408;2022-12-07T06:56:33;19.23;;;12.98;;
44508;SDS011;30214;52.246;14.408;2022-12-07T06:59:00;22.10;;;13.25;;
44508;SDS011;30214;52.246;14.408;2022-12-07T07:01:27;23.30;;;13.20;;
44508;SDS011;30214;52.246;14.408;2022-12-07T07:03:54;22.75;;;13.82;;
44508;SDS011;30214;52.246;14.408;2022-12-07T07:06:21;23.17;;;14.40;;
44508;SDS011;30214;52.246;14.408;2022-12-07T07:08:50;24.08;;;14.07;;
44508;SDS011;30214;52.246;14.408;2022-12-07T07:11:17;25.75;;;14.65;;
44508;SDS011;30214;52.246;14.408;2022-12-07T07:13:44;27.13;;;15.93;;
44508;SDS011;30214;52.246;14.408;2022-12-07T07:16:11;29.10;;;16.95;;
44508;SDS011;30214;52.246;14.408;2022-12-07T07:18:39;52.50;;;25.40;;
44508;SDS011;30214;52.246;14.408;2022-12-07T07:21:06;32.80;;;19.67;;
44508;SDS011;30214;52.246;14.408;2022-12-07T07:23:33;31.17;;;18.83;;
44508;SDS011;30214;52.246;14.408;2022-12-07T07:26:01;31.83;;;18.95;;
44508;SDS011;30214;52.246;14.408;2022-12-07T07:28:29;31.80;;;17.88;;
44508;SDS011;30214;52.246;14.408;2022-12-07T07:30:56;30.33;;;17.15;;
44508;SDS011;30214;52.246;14.408;2022-12-07T07:33:23;29.58;;;17.73;;
44508;SDS011;30214;52.246;14.408;2022-12-07T07:35:50;26.73;;;16.42;;
44508;SDS011;30214;52.246;14.408;2022-12-07T07:38:17;32.22;;;19.42;;
44508;SDS011;30214;52.246;14.408;2022-12-07T07:40:44;33.45;;;18.88;;
44508;SDS011;30214;52.246;14.408;2022-12-07T07:43:13;30.40;;;18.67;;
44508;SDS011;30214;52.246;14.408;2022-12-07T07:45:40;30.77;;;17.85;;
44508;SDS011;30214;52.246;14.408;2022-12-07T07:48:07;25.90;;;16.40;;
44508;SDS011;30214;52.246;14.408;2022-12-07T07:50:34;29.60;;;16.70;;
44508;SDS011;30214;52.246;14.408;2022-12-07T07:53:01;39.80;;;20.77;;
44508;SDS011;30214;52.246;14.408;2022-12-07T07:55:28;37.10;;;20.23;;
44508;SDS011;30214;52.246;14.408;2022-12-07T07:57:55;33.25;;;20.00;;
44508;SDS011;30214;52.246;14.408;2022-12-07T08:00:23;34.45;;;19.23;;
44508;SDS011;30214;52.246;14.408;2022-12-07T08:02:50;37.40;;;21.45;;
44508;SDS011;30214;52.246;14.408;2022-12-07T08:05:17;37.45;;;21.80;;
44508;SDS011;30214;52.246;14.408;2022-12-07T08:07:44;35.05;;;20.33;;
44508;SDS011;30214;52.246;14.408;2022-12-07T08:10:12;36.70;;;20.02;;
44508;SDS011;30214;52.246;14.408;2022-12-07T08:12:40;31.60;;;18.73;;
44508;SDS011;30214;52.246;14.408;2022-12-07T08:15:24;29.90;;;18.55;;
44508;SDS011;30214;52.246;14.408;2022-12-07T08:17:52;30.17;;;18.67;;
44508;SDS011;30214;52.246;14.408;2022-12-07T08:20:19;37.58;;;20.48;;
44508;SDS011;30214;52.246;14.408;2022-12-07T08:22:46;33.75;;;18.67;;
44508;SDS011;30214;52.246;14.408;2022-12-07T08:25:13;27.75;;;16.42;;
44508;SDS011;30214;52.246;14.408;2022-12-07T08:27:40;28.73;;;17.08;;
44508;SDS011;30214;52.246;14.408;2022-12-07T08:30:08;28.40;;;16.85;;
44508;SDS011;30214;52.246;14.408;2022-12-07T08:32:37;26.98;;;17.08;;
44508;SDS011;30214;52.246;14.408;2022-12-07T08:35:04;29.83;;;18.02;;
44508;SDS011;30214;52.246;14.408;2022-12-07T08:37:32;26.65;;;17.40;;
44508;SDS011;30214;52.246;14.408;2022-12-07T08:39:59;25.45;;;16.70;;
44508;SDS011;30214;52.246;14.408;2022-12-07T08:42:26;24.33;;;15.95;;
44508;SDS011;30214;52.246;14.408;2022-12-07T08:44:55;27.98;;;17.90;;
44508;SDS011;30214;52.246;14.408;2022-12-07T08:47:23;24.05;;;16.00;;
44508;SDS011;30214;52.246;14.408;2022-12-07T08:49:52;29.75;;;16.30;;
44508;SDS011;30214;52.246;14.408;2022-12-07T08:52:20;26.13;;;17.25;;
44508;SDS011;30214;52.246;14.408;2022-12-07T08:54:48;25.23;;;16.48;;
44508;SDS011;30214;52.246;14.408;2022-12-07T08:57:15;28.05;;;17.48;;
44508;SDS011;30214;52.246;14.408;2022-12-07T08:59:42;25.67;;;16.38;;
44508;SDS011;30214;52.246;14.408;2022-12-07T09:02:09;24.85;;;16.55;;
44508;SDS011;30214;52.246;14.408;2022-12-07T09:04:36;24.80;;;15.73;;
44508;SDS011;30214;52.246;14.408;2022-12-07T09:07:05;23.75;;;15.85;;
44508;SDS011;30214;52.246;14.408;2022-12-07T09:09:32;25.13;;;15.60;;
44508;SDS011;30214;52.246;14.408;2022-12-07T09:11:59;21.75;;;13.93;;
44508;SDS011;30214;52.246;14.408;2022-12-07T09:14:26;24.80;;;14.93;;
44508;SDS011;30214;52.246;14.408;2022-12-07T09:16:53;22.25;;;13.77;;
44508;SDS011;30214;52.246;14.408;2022-12-07T09:19:20;22.60;;;13.70;;
44508;SDS011;30214;52.246;14.408;2022-12-07T09:21:48;19.80;;;13.13;;
44508;SDS011;30214;52.246;14.408;2022-12-07T09:24:16;18.42;;;11.73;;
44508;SDS011;30214;52.246;14.408;2022-12-07T09:26:43;19.38;;;12.13;;
44508;SDS011;30214;52.246;14.408;2022-12-07T09:29:10;18.13;;;11.10;;
44508;SDS011;30214;52.246;14.408;2022-12-07T09:31:37;18.00;;;10.75;;
44508;SDS011;30214;52.246;14.408;2022-12-07T09:34:04;17.00;;;10.88;;
44508;SDS011;30214;52.246;14.408;2022-12-07T09:36:32;16.05;;;9.73;;
44508;SDS011;30214;52.246;14.408;2022-12-07T09:38:59;13.82;;;9.90;;
44508;SDS011;30214;52.246;14.408;2022-12-07T09:41:29;17.70;;;10.40;;
44508;SDS011;30214;52.246;14.408;2022-12-07T09:43:58;15.65;;;9.57;;
44508;SDS011;30214;52.246;14.408;2022-12-07T09:46:32;17.00;;;9.77;;
44508;SDS011;30214;52.246;14.408;2022-12-07T09:49:03;17.08;;;9.63;;
44508;SDS011;30214;52.246;14.408;2022-12-07T09:51:31;13.50;;;9.27;;
44508;SDS011;30214;52.246;14.408;2022-12-07T09:53:58;17.23;;;8.73;;
44508;SDS011;30214;52.246;14.408;2022-12-07T09:56:28;14.90;;;8.10;;
44508;SDS011;30214;52.246;14.408;2022-12-07T09:58:58;12.73;;;7.72;;
44508;SDS011;30214;52.246;14.408;2022-12-07T10:01:28;12.20;;;8.00;;
44508;SDS011;30214;52.246;14.408;2022-12-07T10:04:00;12.25;;;8.13;;
44508;SDS011;30214;52.246;14.408;2022-12-07T10:06:35;13.63;;;7.57;;
44508;SDS011;30214;52.246;14.408;2022-12-07T10:09:08;11.70;;;6.97;;
44508;SDS011;30214;52.246;14.408;2022-12-07T10:14:28;9.25;;;6.50;;
44508;SDS011;30214;52.246;14.408;2022-12-07T10:16:57;13.80;;;6.47;;
44508;SDS011;30214;52.246;14.408;2022-12-07T10:19:25;9.48;;;5.75;;
44508;SDS011;30214;52.246;14.408;2022-12-07T10:22:02;7.93;;;5.18;;
44508;SDS011;30214;52.246;14.408;2022-12-07T10:24:35;9.40;;;5.25;;
44508;SDS011;30214;52.246;14.408;2022-12-07T10:27:09;9.57;;;4.80;;
44508;SDS011;30214;52.246;14.408;2022-12-07T10:29:47;6.68;;;4.53;;
44508;SDS011;30214;52.246;14.408;2022-12-07T10:32:27;7.97;;;3.80;;
44508;SDS011;30214;52.246;14.408;2022-12-07T10:35:16;5.03;;;3.33;;
44508;SDS011;30214;52.246;14.408;2022-12-07T10:37:49;9.02;;;5.07;;
44508;SDS011;30214;52.246;14.408;2022-12-07T10:40:26;5.03;;;2.75;;
44508;SDS011;30214;52.246;14.408;2022-12-07T10:43:05;4.70;;;2.83;;
44508;SDS011;30214;52.246;14.408;2022-12-07T10:45:55;3.50;;;2.30;;
44508;SDS011;30214;52.246;14.408;2022-12-07T10:48:47;4.10;;;2.80;;
44508;SDS011;30214;52.246;14.408;2022-12-07T10:51:26;7.60;;;4.65;;
44508;SDS011;30214;52.246;14.408;2022-12-07T10:54:08;5.63;;;3.08;;
44508;SDS011;30214;52.246;14.408;2022-12-07T10:56:50;16.30;;;10.80;;
44508;SDS011;30214;52.246;14.408;2022-12-07T10:59:46;14.25;;;7.45;;
44508;SDS011;30214;52.246;14.408;2022-12-07T11:02:35;3.70;;;2.28;;
44508;SDS011;30214;52.246;14.408;2022-12-07T11:05:36;6.25;;;2.13;;
44508;SDS011;30214;52.246;14.408;2022-12-07T11:08:13;4.35;;;1.83;;
44508;SDS011;30214;52.246;14.408;2022-12-07T11:11:02;5.07;;;1.90;;
44508;SDS011;30214;52.246;14.408;2022-12-07T11:13:37;3.97;;;2.10;;
44508;SDS011;30214;52.246;14.408;2022-12-07T11:16:26;4.32;;;2.03;;
44508;SDS011;30214;52.246;14.408;2022-12-07T11:22:09;3.10;;;1.90;;
44508;SDS011;30214;52.246;14.408;2022-12-07T11:24:46;3.38;;;1.90;;
44508;SDS011;30214;52.246;14.408;2022-12-07T11:27:21;4.03;;;1.80;;
44508;SDS011;30214;52.246;14.408;2022-12-07T11:30:08;6.72;;;2.78;;
44508;SDS011;30214;52.246;14.408;2022-12-07T11:32:51;3.03;;;1.92;;
44508;SDS011;30214;52.246;14.408;2022-12-07T11:35:31;3.92;;;1.60;;
44508;SDS011;30214;52.246;14.408;2022-12-07T11:38:08;2.60;;;1.70;;
44508;SDS011;30214;52.246;14.408;2022-12-07T11:40:41;3.97;;;1.98;;
44508;SDS011;30214;52.246;14.408;2022-12-07T11:43:15;2.72;;;1.67;;
44508;SDS011;30214;52.246;14.408;2022-12-07T11:45:51;3.42;;;1.50;;
44508;SDS011;30214;52.246;14.408;2022-12-07T11:48:30;3.88;;;2.03;;
44508;SDS011;30214;52.246;14.408;2022-12-07T11:51:02;4.18;;;1.58;;
44508;SDS011;30214;52.246;14.408;2022-12-07T11:53:31;4.03;;;1.98;;
44508;SDS011;30214;52.246;14.408;2022-12-07T11:56:07;3.25;;;1.60;;
44508;SDS011;30214;52.246;14.408;2022-12-07T12:01:19;2.25;;;1.42;;
44508;SDS011;30214;52.246;14.408;2022-12-07T12:04:16;2.85;;;1.50;;
44508;SDS011;30214;52.246;14.408;2022-12-07T12:06:57;5.30;;;1.40;;
44508;SDS011;30214;52.246;14.408;2022-12-07T12:09:26;2.00;;;1.15;;
44508;SDS011;30214;52.246;14.408;2022-12-07T12:14:46;2.10;;;1.20;;
44508;SDS011;30214;52.246;14.408;2022-12-07T12:17:29;2.88;;;1.30;;
44508;SDS011;30214;52.246;14.408;2022-12-07T12:20:17;2.88;;;1.35;;
44508;SDS011;30214;52.246;14.408;2022-12-07T12:22:51;4.95;;;1.30;;
44508;SDS011;30214;52.246;14.408;2022-12-07T12:25:24;3.10;;;1.40;;
44508;SDS011;30214;52.246;14.408;2022-12-07T12:27:55;2.13;;;1.40;;
44508;SDS011;30214;52.246;14.408;2022-12-07T12:30:34;5.97;;;1.58;;
44508;SDS011;30214;52.246;14.408;2022-12-07T12:33:04;3.15;;;1.25;;
44508;SDS011;30214;52.246;14.408;2022-12-07T12:35:43;2.92;;;1.20;;
44508;SDS011;30214;52.246;14.408;2022-12-07T12:38:24;3.03;;;1.35;;
44508;SDS011;30214;52.246;14.408;2022-12-07T12:47:55;2.85;;;1.25;;
44508;SDS011;30214;52.246;14.408;2022-12-07T12:50:25;4.03;;;1.40;;
44508;SDS011;30214;52.246;14.408;2022-12-07T12:52:58;2.65;;;1.35;;
44508;SDS011;30214;52.246;14.408;2022-12-07T13:02:20;3.00;;;1.40;;
44508;SDS011;30214;52.246;14.408;2022-12-07T13:04:52;3.85;;;1.50;;
44508;SDS011;30214;52.246;14.408;2022-12-07T13:07:47;5.28;;;1.45;;
44508;SDS011;30214;52.246;14.408;2022-12-07T13:10:24;4.40;;;1.58;;
44508;SDS011;30214;52.246;14.408;2022-12-07T13:13:04;6.03;;;1.90;;
44508;SDS011;30214;52.246;14.408;2022-12-07T13:22:34;2.92;;;1.63;;
44508;SDS011;30214;52.246;14.408;2022-12-07T13:25:21;4.90;;;1.70;;
44508;SDS011;30214;52.246;14.408;2022-12-07T13:27:57;3.08;;;1.80;;
44508;SDS011;30214;52.246;14.408;2022-12-07T13:30:40;3.17;;;1.90;;
44508;SDS011;30214;52.246;14.408;2022-12-07T13:33:15;3.08;;;1.77;;
44508;SDS011;30214;52.246;14.408;2022-12-07T13:35:45;3.13;;;1.80;;
44508;SDS011;30214;52.246;14.408;2022-12-07T13:38:19;4.85;;;1.65;;
44508;SDS011;30214;52.246;14.408;2022-12-07T13:40:59;4.18;;;1.80;;
44508;SDS011;30214;52.246;14.408;2022-12-07T13:46:12;5.32;;;1.70;;
44508;SDS011;30214;52.246;14.408;2022-12-07T13:48:43;12.10;;;2.30;;
44508;SDS011;30214;52.246;14.408;2022-12-07T13:51:16;4.70;;;1.88;;
44508;SDS011;30214;52.246;14.408;2022-12-07T13:53:47;5.63;;;1.83;;
44508;SDS011;30214;52.246;14.408;2022-12-07T13:56:17;3.80;;;1.88;;
44508;SDS011;30214;52.246;14.408;2022-12-07T13:58:44;6.38;;;2.50;;
44508;SDS011;30214;52.246;14.408;2022-12-07T14:01:14;3.90;;;2.08;;
44508;SDS011;30214;52.246;14.408;2022-12-07T14:03:41;4.35;;;2.55;;
44508;SDS011;30214;52.246;14.408;2022-12-07T14:06:14;3.75;;;2.20;;
44508;SDS011;30214;52.246;14.408;2022-12-07T14:09:05;7.07;;;2.33;;
44508;SDS011;30214;52.246;14.408;2022-12-07T14:11:35;9.02;;;2.22;;
44508;SDS011;30214;52.246;14.408;2022-12-07T14:14:04;5.45;;;2.63;;
44508;SDS011;30214;52.246;14.408;2022-12-07T14:16:34;5.20;;;2.40;;
44508;SDS011;30214;52.246;14.408;2022-12-07T14:19:04;7.15;;;2.42;;
44508;SDS011;30214;52.246;14.408;2022-12-07T14:22:08;6.68;;;3.65;;
44508;SDS011;30214;52.246;14.408;2022-12-07T14:24:45;5.43;;;2.90;;
44508;SDS011;30214;52.246;14.408;2022-12-07T14:27:16;10.68;;;4.00;;
44508;SDS011;30214;52.246;14.408;2022-12-07T14:29:45;5.88;;;2.67;;
44508;SDS011;30214;52.246;14.408;2022-12-07T14:32:22;4.35;;;1.80;;
44508;SDS011;30214;52.246;14.408;2022-12-07T14:34:59;7.25;;;1.80;;
44508;SDS011;30214;52.246;14.408;2022-12-07T14:37:29;7.82;;;1.77;;
44508;SDS011;30214;52.246;14.408;2022-12-07T14:39:57;4.20;;;2.42;;
44508;SDS011;30214;52.246;14.408;2022-12-07T14:42:26;6.15;;;2.10;;
44508;SDS011;30214;52.246;14.408;2022-12-07T14:44:56;7.68;;;1.90;;
44508;SDS011;30214;52.246;14.408;2022-12-07T14:47:25;6.85;;;2.08;;
44508;SDS011;30214;52.246;14.408;2022-12-07T14:49:53;3.30;;;1.70;;
44508;SDS011;30214;52.246;14.408;2022-12-07T14:52:23;8.05;;;2.05;;
44508;SDS011;30214;52.246;14.408;2022-12-07T14:57:22;4.43;;;1.70;;
44508;SDS011;30214;52.246;14.408;2022-12-07T14:59:49;4.38;;;1.85;;
44508;SDS011;30214;52.246;14.408;2022-12-07T15:02:17;8.75;;;1.70;;
44508;SDS011;30214;52.246;14.408;2022-12-07T15:04:46;5.05;;;1.65;;
44508;SDS011;30214;52.246;14.408;2022-12-07T15:07:15;4.03;;;1.80;;
44508;SDS011;30214;52.246;14.408;2022-12-07T15:09:48;6.05;;;1.60;;
44508;SDS011;30214;52.246;14.408;2022-12-07T15:12:16;4.80;;;1.48;;
44508;SDS011;30214;52.246;14.408;2022-12-07T15:14:43;7.55;;;1.33;;
44508;SDS011;30214;52.246;14.408;2022-12-07T15:17:11;6.32;;;2.15;;
44508;SDS011;30214;52.246;14.408;2022-12-07T15:19:38;14.20;;;4.15;;
44508;SDS011;30214;52.246;14.408;2022-12-07T15:22:08;7.28;;;2.40;;
44508;SDS011;30214;52.246;14.408;2022-12-07T15:24:36;10.82;;;2.20;;
44508;SDS011;30214;52.246;14.408;2022-12-07T15:27:06;7.10;;;2.42;;
44508;SDS011;30214;52.246;14.408;2022-12-07T15:29:33;7.22;;;2.10;;
44508;SDS011;30214;52.246;14.408;2022-12-07T15:32:01;8.48;;;2.03;;
44508;SDS011;30214;52.246;14.408;2022-12-07T15:34:29;7.25;;;2.63;;
44508;SDS011;30214;52.246;14.408;2022-12-07T15:36:57;5.18;;;2.03;;
44508;SDS011;30214;52.246;14.408;2022-12-07T15:39:24;9.10;;;2.20;;